createdAt,value
2018-09-26T00:00:36.178Z,18.14
2018-09-26T00:03:02.942Z,18.16
2018-09-26T00:05:29.564Z,18.18
2018-09-26T00:07:56.228Z,18.22
2018-09-26T00:10:22.904Z,18.21
2018-09-26T00:12:49.687Z,18.25
2018-09-26T00:15:16.457Z,18.23
2018-09-26T00:17:43.077Z,18.28
2018-09-26T00:20:09.791Z,18.25
2018-09-26T00:22:36.456Z,18.27
2018-09-26T00:25:03.207Z,18.30
2018-09-26T00:27:29.872Z,18.29
2018-09-26T00:29:56.583Z,18.29
2018-09-26T00:32:23.950Z,18.28
2018-09-26T00:34:50.620Z,18.31
2018-09-26T00:37:17.357Z,18.36
2018-09-26T00:39:44.123Z,18.38
2018-09-26T00:42:10.792Z,18.34
2018-09-26T00:44:37.438Z,18.36
2018-09-26T00:47:04.529Z,18.39
2018-09-26T00:49:31.185Z,18.37
2018-09-26T00:51:57.840Z,18.40
2018-09-26T00:54:25.548Z,18.38
2018-09-26T00:56:51.182Z,18.42
2018-09-26T00:59:17.838Z,18.38
2018-09-26T01:01:44.531Z,18.39
2018-09-26T01:04:11.192Z,18.37
2018-09-26T01:06:37.854Z,18.37
2018-09-26T01:09:04.569Z,18.41
2018-09-26T01:11:31.220Z,18.37
2018-09-26T01:13:57.928Z,18.41
2018-09-26T01:16:24.580Z,18.44
2018-09-26T01:18:51.253Z,18.42
2018-09-26T01:21:17.939Z,18.37
2018-09-26T01:23:44.601Z,18.41
2018-09-26T01:26:11.398Z,18.44
2018-09-26T01:28:38.067Z,18.47
2018-09-26T01:31:04.716Z,18.49
2018-09-26T01:33:31.406Z,18.47
2018-09-26T01:35:58.075Z,18.48
2018-09-26T01:38:24.729Z,18.45
2018-09-26T01:40:52.718Z,18.45
2018-09-26T01:43:18.045Z,18.50
2018-09-26T01:45:44.695Z,18.46
2018-09-26T01:48:11.480Z,18.49
2018-09-26T01:50:39.289Z,18.51
2018-09-26T01:53:04.864Z,18.50
2018-09-26T01:55:31.552Z,18.49
2018-09-26T01:57:58.344Z,18.55
2018-09-26T02:00:25.018Z,18.52
2018-09-26T02:02:51.702Z,18.50
2018-09-26T02:05:18.455Z,18.52
2018-09-26T02:07:45.114Z,18.45
2018-09-26T02:10:11.780Z,18.52
2018-09-26T02:12:38.508Z,18.49
2018-09-26T02:15:05.209Z,18.46
2018-09-26T02:17:31.983Z,18.52
2018-09-26T02:19:58.657Z,18.48
2018-09-26T02:22:25.361Z,18.53
2018-09-26T02:24:52.142Z,18.55
2018-09-26T02:27:18.901Z,18.51
2018-09-26T02:29:45.581Z,18.52
2018-09-26T02:32:13.506Z,18.45
2018-09-26T02:34:39.029Z,18.52
2018-09-26T02:37:05.778Z,18.54
2018-09-26T02:39:32.515Z,18.50
2018-09-26T02:41:59.203Z,18.53
2018-09-26T02:44:25.865Z,18.51
2018-09-26T02:46:52.572Z,18.53
2018-09-26T02:49:19.243Z,18.53
2018-09-26T02:51:45.904Z,18.47
2018-09-26T02:54:12.644Z,18.56
2018-09-26T02:56:39.360Z,18.48
2018-09-26T02:59:06.065Z,18.52
2018-09-26T03:01:32.718Z,18.52
2018-09-26T03:03:59.433Z,18.52
2018-09-26T03:06:26.143Z,18.51
2018-09-26T03:08:52.826Z,18.61
2018-09-26T03:11:19.541Z,18.81
2018-09-26T03:13:46.211Z,19.20
2018-09-26T03:16:14.101Z,19.54
2018-09-26T03:18:39.592Z,19.61
2018-09-26T03:21:07.603Z,19.46
2018-09-26T03:23:32.919Z,19.43
2018-09-26T03:25:59.619Z,19.11
2018-09-26T03:28:28.499Z,19.02
2018-09-26T03:30:52.994Z,19.31
2018-09-26T03:33:19.701Z,19.21
2018-09-26T03:35:46.468Z,19.01
2018-09-26T03:38:13.120Z,18.67
2018-09-26T03:40:39.757Z,18.50
2018-09-26T03:43:11.753Z,18.47
2018-09-26T03:45:36.271Z,18.42
2018-09-26T03:48:02.912Z,18.37
2018-09-26T03:50:29.633Z,18.41
2018-09-26T03:52:57.769Z,18.42
2018-09-26T03:55:23.112Z,18.42
2018-09-26T03:57:49.786Z,18.48
2018-09-26T04:00:17.727Z,18.52
2018-09-26T04:02:43.097Z,18.52
2018-09-26T04:05:09.781Z,18.58
2018-09-26T04:07:36.469Z,18.74
2018-09-26T04:10:03.116Z,18.72
2018-09-26T04:12:29.863Z,18.75
2018-09-26T04:14:56.596Z,18.77
2018-09-26T04:17:23.247Z,18.81
2018-09-26T04:19:49.964Z,18.79
2018-09-26T04:22:16.646Z,18.99
2018-09-26T04:24:43.295Z,18.85
2018-09-26T04:27:10.013Z,18.83
2018-09-26T04:29:36.569Z,18.94
2018-09-26T04:32:03.235Z,19.05
2018-09-26T04:34:29.869Z,19.19
2018-09-26T04:36:57.835Z,19.26
2018-09-26T04:39:23.199Z,19.10
2018-09-26T04:41:51.815Z,19.01
2018-09-26T04:44:18.500Z,18.92
2018-09-26T04:46:45.194Z,18.75
2018-09-26T04:49:12.665Z,18.74
2018-09-26T04:51:42.356Z,18.57
2018-09-26T04:54:09.154Z,18.51
2018-09-26T04:56:35.856Z,18.46
2018-09-26T04:59:02.552Z,18.65
2018-09-26T05:01:29.228Z,18.63
2018-09-26T05:03:55.826Z,18.64
2018-09-26T05:06:22.562Z,18.67
2018-09-26T05:08:49.262Z,18.49
2018-09-26T05:11:15.893Z,18.56
2018-09-26T05:13:42.575Z,18.39
2018-09-26T05:16:09.361Z,18.33
2018-09-26T05:18:35.996Z,18.25
2018-09-26T05:21:04.643Z,18.19
2018-09-26T05:23:29.331Z,18.20
2018-09-26T05:25:56.012Z,18.10
2018-09-26T05:28:22.653Z,18.12
2018-09-26T05:30:49.297Z,17.95
2018-09-26T05:33:16.506Z,18.07
2018-09-26T05:35:43.118Z,17.94
2018-09-26T05:38:09.820Z,17.90
2018-09-26T05:40:39.741Z,18.14
2018-09-26T05:43:06.379Z,18.06
2018-09-26T05:45:33.134Z,17.89
2018-09-26T05:47:59.905Z,18.01
2018-09-26T05:50:26.595Z,18.58
2018-09-26T05:52:53.314Z,18.69
2018-09-26T05:55:20.031Z,18.64
2018-09-26T05:57:46.672Z,18.72
2018-09-26T06:00:13.540Z,18.66
2018-09-26T06:02:40.253Z,18.52
2018-09-26T06:05:07.351Z,18.58
2018-09-26T06:07:34.074Z,18.33
2018-09-26T06:10:00.767Z,18.20
2018-09-26T06:12:27.602Z,18.10
2018-09-26T06:14:55.546Z,18.17
2018-09-26T06:17:22.203Z,18.05
2018-09-26T06:19:48.878Z,18.13
2018-09-26T06:22:15.559Z,18.14
2018-09-26T06:24:42.272Z,17.98
2018-09-26T06:27:08.909Z,17.95
2018-09-26T06:29:35.521Z,18.10
2018-09-26T06:32:03.281Z,18.23
2018-09-26T06:34:28.897Z,18.24
2018-09-26T06:36:55.499Z,18.21
2018-09-26T06:39:23.446Z,18.29
2018-09-26T06:41:48.928Z,19.22
2018-09-26T06:44:15.596Z,18.70
2018-09-26T06:46:42.334Z,18.80
2018-09-26T06:49:10.362Z,18.87
2018-09-26T06:51:35.669Z,18.93
2018-09-26T06:54:02.435Z,19.08
2018-09-26T06:56:29.026Z,19.13
2018-09-26T06:58:55.722Z,19.23
2018-09-26T07:01:22.391Z,18.97
2018-09-26T07:03:49.117Z,19.11
2018-09-26T07:06:20.986Z,19.04
2018-09-26T07:08:47.724Z,19.05
2018-09-26T07:11:14.365Z,19.25
2018-09-26T07:13:41.124Z,19.13
2018-09-26T07:16:07.720Z,19.18
2018-09-26T07:18:34.401Z,19.23
2018-09-26T07:21:04.382Z,19.25
2018-09-26T07:23:34.210Z,19.27
2018-09-26T07:26:00.898Z,19.30
2018-09-26T07:28:27.576Z,19.35
2018-09-26T07:30:54.220Z,19.34
2018-09-26T07:33:20.868Z,19.37
2018-09-26T07:35:47.525Z,19.37
2018-09-26T07:38:14.244Z,19.39
2018-09-26T07:40:41.014Z,19.40
2018-09-26T07:43:10.716Z,19.42
2018-09-26T07:45:37.499Z,19.45
2018-09-26T07:48:06.099Z,19.42
2018-09-26T07:50:30.674Z,19.52
2018-09-26T07:52:58.762Z,19.53
2018-09-26T07:55:24.015Z,19.51
2018-09-26T07:57:50.750Z,19.40
2018-09-26T08:00:17.485Z,19.39
2018-09-26T08:02:44.136Z,19.51
2018-09-26T08:05:10.784Z,19.62
2018-09-26T08:07:37.522Z,19.67
2018-09-26T08:10:04.182Z,19.65
2018-09-26T08:12:34.100Z,19.62
2018-09-26T08:15:00.714Z,19.62
2018-09-26T08:17:27.474Z,19.60
2018-09-26T08:19:54.070Z,19.70
2018-09-26T08:22:20.711Z,19.82
2018-09-26T08:24:47.419Z,19.67
2018-09-26T08:27:14.104Z,19.89
2018-09-26T08:29:40.826Z,19.86
2018-09-26T08:32:08.788Z,20.02
2018-09-26T08:34:34.060Z,20.04
2018-09-26T08:37:00.788Z,20.02
2018-09-26T08:39:27.389Z,19.94
2018-09-26T08:41:54.177Z,19.89
2018-09-26T08:44:20.817Z,19.91
2018-09-26T08:46:47.465Z,19.90
2018-09-26T08:49:14.115Z,19.90
2018-09-26T08:51:40.754Z,19.87
2018-09-26T08:54:08.792Z,19.74
2018-09-26T08:56:34.133Z,19.88
2018-09-26T08:59:00.878Z,19.83
2018-09-26T09:01:28.966Z,19.75
2018-09-26T09:03:54.368Z,19.76
2018-09-26T09:06:21.072Z,19.79
2018-09-26T09:08:47.693Z,19.74
2018-09-26T09:11:15.599Z,19.75
2018-09-26T09:13:40.948Z,19.65
2018-09-26T09:16:10.566Z,19.69
2018-09-26T09:18:37.227Z,19.75
2018-09-26T09:21:03.852Z,19.67
2018-09-26T09:23:30.518Z,19.47
2018-09-26T09:25:57.223Z,19.49
2018-09-26T09:28:23.832Z,19.63
2018-09-26T09:30:50.561Z,19.63
2018-09-26T09:33:17.208Z,19.63
2018-09-26T09:35:43.839Z,19.46
2018-09-26T09:38:10.577Z,19.48
2018-09-26T09:40:37.261Z,19.25
2018-09-26T09:43:04.008Z,19.25
2018-09-26T09:45:30.708Z,19.12
2018-09-26T09:47:58.718Z,19.12
2018-09-26T09:50:24.059Z,18.99
2018-09-26T09:52:50.737Z,18.98
2018-09-26T09:55:17.335Z,18.51
2018-09-26T09:57:43.970Z,18.25
2018-09-26T10:00:10.646Z,18.49
2018-09-26T10:02:37.376Z,18.56
2018-09-26T10:05:03.970Z,18.74
2018-09-26T10:07:30.629Z,18.58
2018-09-26T10:09:57.287Z,18.61
2018-09-26T10:12:23.992Z,18.11
2018-09-26T10:14:50.604Z,17.97
2018-09-26T10:17:17.245Z,18.24
2018-09-26T10:19:43.896Z,18.25
2018-09-26T10:22:10.566Z,18.23
2018-09-26T10:24:37.228Z,18.36
2018-09-26T10:27:03.909Z,18.34
2018-09-26T10:29:30.545Z,18.05
2018-09-26T10:31:57.205Z,18.00
2018-09-26T10:34:23.942Z,17.74
2018-09-26T10:36:50.618Z,17.90
2018-09-26T10:39:17.284Z,17.83
2018-09-26T10:41:45.178Z,17.87
2018-09-26T10:44:10.623Z,17.73
2018-09-26T10:46:37.365Z,17.77
2018-09-26T10:49:04.028Z,17.87
2018-09-26T10:51:34.035Z,17.92
2018-09-26T10:54:03.602Z,17.87
2018-09-26T10:56:30.459Z,17.73
2018-09-26T10:58:56.986Z,17.77
2018-09-26T11:01:23.716Z,17.86
2018-09-26T11:03:50.403Z,17.76
2018-09-26T11:06:17.051Z,17.95
2018-09-26T11:08:43.778Z,17.52
2018-09-26T11:11:12.756Z,18.07
2018-09-26T11:13:37.175Z,17.72
2018-09-26T11:16:04.549Z,17.76
2018-09-26T11:18:31.566Z,17.75
2018-09-26T11:20:58.303Z,17.81
2018-09-26T11:23:24.942Z,18.28
2018-09-26T11:25:51.668Z,18.46
2018-09-26T11:28:18.370Z,17.90
2018-09-26T11:30:44.986Z,17.67
2018-09-26T11:33:14.830Z,17.44
2018-09-26T11:35:40.056Z,17.90
2018-09-26T11:38:05.402Z,17.39
2018-09-26T11:40:32.127Z,18.17
2018-09-26T11:42:58.933Z,17.81
2018-09-26T11:45:25.653Z,17.84
2018-09-26T11:47:52.535Z,17.70
2018-09-26T11:50:19.528Z,18.04
2018-09-26T11:52:46.328Z,18.00
2018-09-26T11:55:16.110Z,17.55
2018-09-26T11:57:42.742Z,17.54
2018-09-26T12:00:09.385Z,17.42
2018-09-26T12:02:36.065Z,17.55
2018-09-26T12:05:02.767Z,17.62
2018-09-26T12:07:29.578Z,17.30
2018-09-26T12:09:56.178Z,17.44
2018-09-26T12:12:23.013Z,17.77
2018-09-26T12:14:49.574Z,18.04
2018-09-26T12:17:19.206Z,17.31
2018-09-26T12:19:45.912Z,17.37
2018-09-26T12:22:12.612Z,17.45
2018-09-26T12:24:39.226Z,17.27
2018-09-26T12:27:08.089Z,17.36
2018-09-26T12:29:32.667Z,17.43
2018-09-26T12:31:59.349Z,17.40
2018-09-26T12:34:26.042Z,17.23
2018-09-26T12:36:53.024Z,17.71
2018-09-26T12:39:20.435Z,17.64
2018-09-26T12:41:47.165Z,17.56
2018-09-26T12:44:14.123Z,17.15
2018-09-26T12:46:40.775Z,17.00
2018-09-26T12:49:09.619Z,17.20
2018-09-26T12:51:34.127Z,17.38
2018-09-26T12:54:00.827Z,17.72
2018-09-26T12:56:27.512Z,17.80
2018-09-26T12:58:54.158Z,17.57
2018-09-26T13:01:20.970Z,17.38
2018-09-26T13:03:47.620Z,17.53
2018-09-26T13:06:18.430Z,17.56
2018-09-26T13:08:44.094Z,17.72
2018-09-26T13:11:10.735Z,17.66
2018-09-26T13:13:37.388Z,17.49
2018-09-26T13:16:04.076Z,17.65
2018-09-26T13:18:30.686Z,17.46
2018-09-26T13:20:57.379Z,17.58
2018-09-26T13:23:24.057Z,17.47
2018-09-26T13:25:50.720Z,17.41
2018-09-26T13:28:20.598Z,17.43
2018-09-26T13:30:47.409Z,17.43
2018-09-26T13:33:14.384Z,17.39
2018-09-26T13:35:41.230Z,17.46
2018-09-26T13:38:07.943Z,17.70
2018-09-26T13:40:34.717Z,17.53
2018-09-26T13:43:01.462Z,17.53
2018-09-26T13:45:28.168Z,17.43
2018-09-26T13:47:54.833Z,17.70
2018-09-26T13:50:21.542Z,17.82
2018-09-26T13:52:49.523Z,17.54
2018-09-26T13:55:14.954Z,17.38
2018-09-26T13:57:41.717Z,17.43
2018-09-26T14:00:08.467Z,17.38
2018-09-26T14:02:35.185Z,17.42
2018-09-26T14:05:01.923Z,17.44
2018-09-26T14:07:28.581Z,17.31
2018-09-26T14:09:56.652Z,17.20
2018-09-26T14:12:21.999Z,17.23
2018-09-26T14:17:15.280Z,17.26
2018-09-26T14:19:42.048Z,17.26
2018-09-26T14:22:08.746Z,17.29
2018-09-26T14:24:35.436Z,17.29
2018-09-26T14:27:02.141Z,17.37
2018-09-26T14:29:32.077Z,17.45
2018-09-26T14:31:58.739Z,17.46
2018-09-26T14:34:26.737Z,17.41
2018-09-26T14:36:52.260Z,17.38
2018-09-26T14:39:18.993Z,17.35
2018-09-26T14:41:45.578Z,17.43
2018-09-26T14:44:12.257Z,17.34
2018-09-26T14:46:39.857Z,17.16
2018-09-26T14:49:06.489Z,17.34
2018-09-26T14:51:33.188Z,17.26
2018-09-26T14:54:01.021Z,17.20
2018-09-26T14:56:26.492Z,17.15
2018-09-26T14:58:53.102Z,17.20
2018-09-26T15:01:19.732Z,17.14
2018-09-26T15:03:47.307Z,17.15
2018-09-26T15:06:13.952Z,17.02
2018-09-26T15:08:40.588Z,17.13
2018-09-26T15:11:07.189Z,17.01
2018-09-26T15:13:33.873Z,17.21
2018-09-26T15:16:00.510Z,17.25
2018-09-26T15:18:27.164Z,17.15
2018-09-26T15:20:56.338Z,17.13
2018-09-26T15:23:23.041Z,17.02
2018-09-26T15:25:49.683Z,17.03
2018-09-26T15:28:16.509Z,17.12
2018-09-26T15:30:43.049Z,17.11
2018-09-26T15:33:09.654Z,16.95
2018-09-26T15:35:36.305Z,16.98
2018-09-26T15:38:03.045Z,17.07
2018-09-26T15:40:29.728Z,17.17
2018-09-26T15:42:56.337Z,17.20
2018-09-26T15:45:22.985Z,17.15
2018-09-26T15:47:49.688Z,17.23
2018-09-26T15:50:16.413Z,17.15
2018-09-26T15:52:43.047Z,17.16
2018-09-26T15:55:09.779Z,17.11
2018-09-26T15:57:36.429Z,17.16
2018-09-26T16:00:03.090Z,17.09
2018-09-26T16:02:29.769Z,17.10
2018-09-26T16:04:57.016Z,16.98
2018-09-26T16:07:23.718Z,16.99
2018-09-26T16:09:50.360Z,16.93
2018-09-26T16:12:17.080Z,16.92
2018-09-26T16:14:43.689Z,16.92
2018-09-26T16:17:10.318Z,16.85
2018-09-26T16:19:37.007Z,16.82
2018-09-26T16:22:03.645Z,16.79
2018-09-26T16:24:30.294Z,16.79
2018-09-26T16:26:59.977Z,16.77
2018-09-26T16:29:29.816Z,16.79
2018-09-26T16:31:56.498Z,16.78
2018-09-26T16:34:23.180Z,16.80
2018-09-26T16:36:51.670Z,16.79
2018-09-26T16:39:16.532Z,16.74
2018-09-26T16:41:43.199Z,16.71
2018-09-26T16:44:09.938Z,16.73
2018-09-26T16:46:38.113Z,16.73
2018-09-26T16:49:03.213Z,16.68
2018-09-26T16:51:29.858Z,16.68
2018-09-26T16:53:56.603Z,16.70
2018-09-26T16:56:24.736Z,16.68
2018-09-26T16:58:49.922Z,16.72
2018-09-26T17:01:16.560Z,16.68
2018-09-26T17:03:43.198Z,16.67
2018-09-26T17:06:12.729Z,16.67
2018-09-26T17:08:37.141Z,16.59
2018-09-26T17:11:03.831Z,16.58
2018-09-26T17:13:30.476Z,16.62
2018-09-26T17:15:58.495Z,16.64
2018-09-26T17:18:23.858Z,16.61
2018-09-26T17:20:50.473Z,16.63
2018-09-26T17:23:17.121Z,16.60
2018-09-26T17:25:43.767Z,16.56
2018-09-26T17:28:10.464Z,16.54
2018-09-26T17:30:37.187Z,16.58
2018-09-26T17:33:03.922Z,16.62
2018-09-26T17:35:30.602Z,16.61
2018-09-26T17:37:57.238Z,16.61
2018-09-26T17:40:23.939Z,16.60
2018-09-26T17:42:50.757Z,16.61
2018-09-26T17:45:19.562Z,16.60
2018-09-26T17:47:44.094Z,16.64
2018-09-26T17:50:10.727Z,16.62
2018-09-26T17:52:38.138Z,16.64
2018-09-26T17:55:04.791Z,16.64
2018-09-26T17:57:31.496Z,16.61
2018-09-26T17:59:58.204Z,16.66
2018-09-26T18:02:24.838Z,16.65
2018-09-26T18:04:51.512Z,16.74
2018-09-26T18:07:21.001Z,16.80
2018-09-26T18:09:47.679Z,16.79
2018-09-26T18:12:14.362Z,16.80
2018-09-26T18:14:41.135Z,16.81
2018-09-26T18:17:07.798Z,16.84
2018-09-26T18:19:34.490Z,16.90
2018-09-26T18:22:01.173Z,16.87
2018-09-26T18:24:27.853Z,16.91
2018-09-26T18:26:54.562Z,16.94
2018-09-26T18:29:21.249Z,16.91
2018-09-26T18:31:47.953Z,16.88
2018-09-26T18:34:14.647Z,16.95
2018-09-26T18:36:41.286Z,16.97
2018-09-26T18:39:08.083Z,17.02
2018-09-26T18:41:34.792Z,17.03
2018-09-26T18:44:01.480Z,17.07
2018-09-26T18:46:28.108Z,17.09
2018-09-26T18:48:54.756Z,17.08
2018-09-26T18:51:21.389Z,17.11
2018-09-26T18:53:48.078Z,17.17
2018-09-26T18:56:17.685Z,17.22
2018-09-26T18:58:44.371Z,17.21
2018-09-26T19:01:11.008Z,17.23
2018-09-26T19:03:37.731Z,17.26
2018-09-26T19:06:07.537Z,17.28
2018-09-26T19:08:34.176Z,17.26
2018-09-26T19:11:00.909Z,17.35
2018-09-26T19:13:27.584Z,17.33
2018-09-26T19:15:54.270Z,17.36
2018-09-26T19:18:23.979Z,17.36
2018-09-26T19:20:50.709Z,17.41
2018-09-26T19:23:17.387Z,17.42
2018-09-26T19:25:44.037Z,17.44
2018-09-26T19:28:10.677Z,17.48
2018-09-26T19:30:40.316Z,17.48
2018-09-26T19:33:10.040Z,17.51
2018-09-26T19:35:36.641Z,17.54
2018-09-26T19:38:03.321Z,17.55
2018-09-26T19:40:30.002Z,17.57
2018-09-26T19:42:56.606Z,17.60
2018-09-26T19:45:23.271Z,17.61
2018-09-26T19:47:49.953Z,17.62
2018-09-26T19:50:16.592Z,17.63
2018-09-26T19:52:44.613Z,17.54
2018-09-26T19:55:09.991Z,17.65
2018-09-26T19:57:36.765Z,17.68
2018-09-26T20:00:03.491Z,17.71
2018-09-26T20:02:30.335Z,17.68
2018-09-26T20:04:56.979Z,17.65
2018-09-26T20:07:23.966Z,17.66
2018-09-26T20:09:51.646Z,17.70
2018-09-26T20:12:18.397Z,17.77
2018-09-26T20:14:45.093Z,17.81
2018-09-26T20:17:11.771Z,17.79
2018-09-26T20:19:38.560Z,17.79
2018-09-26T20:22:05.278Z,17.85
2018-09-26T20:24:31.890Z,17.84
2018-09-26T20:26:58.687Z,17.85
2018-09-26T20:29:25.553Z,17.90
2018-09-26T20:31:52.421Z,17.87
2018-09-26T20:34:20.434Z,17.92
2018-09-26T20:36:45.721Z,17.97
2018-09-26T20:39:13.994Z,17.94
2018-09-26T20:41:39.244Z,17.98
2018-09-26T20:44:06.955Z,17.97
2018-09-26T20:46:32.585Z,18.04
2018-09-26T20:49:00.659Z,18.05
2018-09-26T20:51:28.801Z,18.07
2018-09-26T20:53:55.538Z,18.05
2018-09-26T20:56:22.194Z,18.09
2018-09-26T20:58:48.842Z,18.12
2018-09-26T21:01:15.583Z,18.14
2018-09-26T21:03:42.234Z,18.15
2018-09-26T21:06:08.895Z,18.21
2018-09-26T21:08:35.551Z,18.18
2018-09-26T21:11:02.246Z,18.21
2018-09-26T21:13:28.885Z,18.19
2018-09-26T21:15:55.605Z,18.24
2018-09-26T21:18:22.341Z,18.25
2018-09-26T21:20:50.287Z,18.26
2018-09-26T21:23:15.742Z,18.28
2018-09-26T21:25:42.280Z,18.28
2018-09-26T21:28:09.237Z,18.33
2018-09-26T21:30:36.228Z,18.32
2018-09-26T21:33:02.845Z,18.32
2018-09-26T21:35:29.486Z,18.33
2018-09-26T21:37:56.210Z,18.39
2018-09-26T21:40:25.155Z,18.38
2018-09-26T21:42:50.567Z,18.38
2018-09-26T21:45:17.303Z,18.38
2018-09-26T21:47:43.956Z,18.37
2018-09-26T21:50:10.684Z,18.43
2018-09-26T21:52:37.298Z,18.46
2018-09-26T21:55:04.036Z,18.41
2018-09-26T21:57:30.676Z,18.45
2018-09-26T21:59:57.413Z,18.45
2018-09-26T22:02:24.051Z,18.47
2018-09-26T22:04:50.686Z,18.51
2018-09-26T22:07:17.337Z,18.46
2018-09-26T22:09:43.973Z,18.47
2018-09-26T22:12:10.640Z,18.55
2018-09-26T22:14:37.313Z,18.57
2018-09-26T22:17:03.949Z,18.58
2018-09-26T22:19:30.600Z,18.56
2018-09-26T22:21:57.247Z,18.60
2018-09-26T22:24:23.890Z,18.59
2018-09-26T22:26:50.609Z,18.58
2018-09-26T22:29:17.224Z,18.62
2018-09-26T22:31:43.883Z,18.60
2018-09-26T22:34:10.521Z,18.61
2018-09-26T22:36:38.570Z,18.64
2018-09-26T22:39:03.886Z,18.64
2018-09-26T22:41:30.616Z,18.70
2018-09-26T22:43:57.268Z,18.69
2018-09-26T22:46:23.909Z,18.69
2018-09-26T22:48:50.556Z,18.67
2018-09-26T22:51:17.216Z,18.71
2018-09-26T22:53:43.858Z,18.71
2018-09-26T22:56:10.588Z,18.71
2018-09-26T22:58:37.331Z,18.71
2018-09-26T23:01:03.970Z,18.73
2018-09-26T23:03:30.651Z,18.72
2018-09-26T23:05:57.342Z,18.77
2018-09-26T23:08:26.793Z,18.75
2018-09-26T23:10:53.441Z,18.74
2018-09-26T23:13:21.998Z,18.72
2018-09-26T23:15:48.649Z,18.75
2018-09-26T23:18:15.311Z,18.78
2018-09-26T23:20:41.956Z,18.75
2018-09-26T23:23:08.602Z,18.77
2018-09-26T23:25:38.610Z,18.70
2018-09-26T23:28:07.504Z,18.83
2018-09-26T23:30:31.989Z,18.91
2018-09-26T23:32:58.649Z,18.94
2018-09-26T23:35:25.333Z,19.01
2018-09-26T23:37:53.327Z,18.89
2018-09-26T23:40:18.618Z,18.91
2018-09-26T23:42:45.268Z,18.88
2018-09-26T23:45:12.008Z,18.83
2018-09-26T23:47:38.655Z,18.86
2018-09-26T23:50:05.338Z,18.86
2018-09-26T23:52:32.004Z,18.88
2018-09-26T23:54:58.648Z,18.91
2018-09-26T23:57:25.324Z,18.82
2018-09-26T23:59:54.476Z,18.80
